Hauptseite
METAR-TAF:

METAR-TAF

Flughäfen :

Flughafen Sitten

Sion, Schweiz

Breite: 46-13N, Länge: 007-20E, Höhe: 482 m

Beobachtung

Neuester Wetterbericht von vor 37 Minuten, um 10:20 UTC
Wind 3 kt aus unterschiedlichen Richtungen
Temperatur 27°C
Luftfeuchtigkeit 48%
Luftdruck 1019 hPa
Sichtweite 10 km oder mehr
Leicht bewölkt in der Höhe von 7000 ft

METAR: LSGS 201020Z VRB03KT 9999 FEW070 27/15 Q1019

Zeit: 12:57 (10:57 UTC)

Prognose

Neuester Wetterbericht von vor 2 Stunden und 32 Minuten, um 08:25 UTC
Gültige Prognose vom 20 um 09 UTC bis 20 um 18 UTC
Wind 3 kt aus unterschiedlichen Richtungen
Sichtweite 10 km oder mehr
Leicht bewölkt in der Höhe von 6000 ft
Übergehend zu
vom 20 um 14 UTC bis 20 um 16 UTC
Wind 10 kt aus West/Südwest

TAF: LSGS 200825Z 2009/2018 VRB03KT 9999 FEW060 BECMG 2014/2016 25010KT

Wetterbeobachtungen und Prognosen von mehr als 4000 Flughäfen (METAR und TAF Bericht).

Die verfügbaren Stationen werden durch gelbe und rote Markierungen auf der Karte dargestellt.

Führen Sie die Maus auf sie, um den Namen der Station zu sehen.

Darauf klicken, um die Beobachtung von Wetterbeobachtungen und Prognosen zu sehen.

Um die Karte zu ändern : klicken Sie auf den grünen Tasten mit einem schwarzen Kreuz Zum Vergrößern, auf den grünen Button mit einem Gedankenstrich zu verkleinern, oder auf die grünen Pfeile für benachbarte Karten.


METAR-TAF: